Time,TemperatureF,DewpointF,PressureIn,WindDirection,WindDirectionDegrees,WindSpeedMPH,WindSpeedGustMPH,Humidity,HourlyPrecipIn,Conditions,Clouds,dailyrainin,SolarRadiationWatts/m^2,SoftwareType,DateUTC
2013-07-22 00:01:00,60.0,43.0,-100.00,NNW,340,1.0,5.0,53,0.00,,,0.00,0.000000,,2013-07-22 06:01:00,
2013-07-22 00:11:00,60.0,43.0,-100.00,NNW,340,1.0,5.0,53,0.00,,,0.00,0.000000,,2013-07-22 06:11:00,
2013-07-22 00:22:00,60.0,43.0,-100.00,NNW,340,1.0,5.0,53,0.00,,,0.00,0.000000,,2013-07-22 06:22:00,
2013-07-22 00:33:00,60.0,43.0,-100.00,NNW,340,1.0,5.0,53,0.00,,,0.00,0.000000,,2013-07-22 06:33:00,
2013-07-22 01:01:00,57.0,43.0,-100.00,NNW,340,1.0,5.0,59,0.00,,,0.00,0.000000,,2013-07-22 07:01:00,
2013-07-22 01:11:00,57.0,43.0,-100.00,NNW,340,1.0,5.0,59,0.00,,,0.00,0.000000,,2013-07-22 07:11:00,
2013-07-22 01:22:00,57.0,43.0,-100.00,NNW,340,1.0,5.0,59,0.00,,,0.00,0.000000,,2013-07-22 07:22:00,
2013-07-22 01:33:00,57.0,43.0,-100.00,NNW,340,1.0,5.0,59,0.00,,,0.00,0.000000,,2013-07-22 07:33:00,
2013-07-22 02:02:00,57.0,48.0,-100.00,NNW,338,2.0,5.0,71,0.00,,,0.00,0.000000,,2013-07-22 08:02:00,
2013-07-22 02:11:00,57.0,48.0,-100.00,NNW,338,2.0,5.0,71,0.00,,,0.00,0.000000,,2013-07-22 08:11:00,
2013-07-22 02:22:00,57.0,48.0,-100.00,NNW,338,2.0,5.0,71,0.00,,,0.00,0.000000,,2013-07-22 08:22:00,
2013-07-22 02:32:00,57.0,48.0,-100.00,NNW,338,2.0,5.0,71,0.00,,,0.00,0.000000,,2013-07-22 08:32:00,
2013-07-22 03:02:00,55.0,52.0,-100.00,North,5,2.0,7.0,90,0.00,,,0.00,0.000000,,2013-07-22 09:02:00,
2013-07-22 03:11:00,55.0,52.0,-100.00,North,5,2.0,7.0,90,0.00,,,0.00,0.000000,,2013-07-22 09:11:00,
2013-07-22 03:22:00,55.0,52.0,-100.00,North,5,2.0,7.0,90,0.00,,,0.00,0.000000,,2013-07-22 09:22:00,
2013-07-22 03:33:00,55.0,52.0,-100.00,North,5,2.0,7.0,90,0.00,,,0.00,0.000000,,2013-07-22 09:33:00,
2013-07-22 04:02:00,53.0,51.0,-100.00,North,9,0.0,3.0,94,0.00,,,0.00,0.000000,,2013-07-22 10:02:00,
2013-07-22 04:11:00,53.0,51.0,-100.00,North,9,0.0,3.0,94,0.00,,,0.00,0.000000,,2013-07-22 10:11:00,
2013-07-22 04:22:00,53.0,51.0,-100.00,North,9,0.0,3.0,94,0.00,,,0.00,0.000000,,2013-07-22 10:22:00,
2013-07-22 04:32:00,53.0,51.0,-100.00,North,9,0.0,3.0,94,0.00,,,0.00,0.000000,,2013-07-22 10:32:00,
2013-07-22 05:01:00,49.0,47.0,-100.00,NE,42,0.0,2.0,94,0.00,,,0.00,0.000000,,2013-07-22 11:01:00,
2013-07-22 05:11:00,49.0,47.0,-100.00,NE,42,0.0,2.0,94,0.00,,,0.00,0.000000,,2013-07-22 11:11:00,
2013-07-22 05:23:00,49.0,47.0,-100.00,NE,42,0.0,2.0,94,0.00,,,0.00,0.000000,,2013-07-22 11:23:00,
2013-07-22 05:32:00,49.0,47.0,-100.00,NE,42,0.0,2.0,94,0.00,,,0.00,0.000000,,2013-07-22 11:32:00,
2013-07-22 06:02:00,47.0,46.0,-100.00,ESE,102,0.0,4.0,95,0.00,,,0.00,1.000000,,2013-07-22 12:02:00,
2013-07-22 06:11:00,47.0,46.0,-100.00,ESE,102,0.0,4.0,95,0.00,,,0.00,1.000000,,2013-07-22 12:11:00,
2013-07-22 06:22:00,47.0,46.0,-100.00,ESE,102,0.0,4.0,95,0.00,,,0.00,1.000000,,2013-07-22 12:22:00,
2013-07-22 06:32:00,47.0,46.0,-100.00,ESE,102,0.0,4.0,95,0.00,,,0.00,1.000000,,2013-07-22 12:32:00,
2013-07-22 07:01:00,47.0,46.0,-100.00,NE,37,1.0,4.0,95,0.00,,,0.00,16.000000,,2013-07-22 13:01:00,
2013-07-22 07:11:00,47.0,46.0,-100.00,NE,37,1.0,4.0,95,0.00,,,0.00,16.000000,,2013-07-22 13:11:00,
2013-07-22 07:22:00,47.0,46.0,-100.00,NE,37,1.0,4.0,95,0.00,,,0.00,16.000000,,2013-07-22 13:22:00,
2013-07-22 07:32:00,47.0,46.0,-100.00,NE,37,1.0,4.0,95,0.00,,,0.00,16.000000,,2013-07-22 13:32:00,
2013-07-22 08:01:00,54.0,51.0,-100.00,NNW,332,0.0,4.0,89,0.00,,,0.00,42.000000,,2013-07-22 14:01:00,
2013-07-22 08:11:00,54.0,51.0,-100.00,NNW,332,0.0,4.0,89,0.00,,,0.00,42.000000,,2013-07-22 14:11:00,
2013-07-22 08:22:00,54.0,51.0,-100.00,NNW,332,0.0,4.0,89,0.00,,,0.00,42.000000,,2013-07-22 14:22:00,
2013-07-22 08:32:00,54.0,51.0,-100.00,NNW,332,0.0,4.0,89,0.00,,,0.00,42.000000,,2013-07-22 14:32:00,
2013-07-22 09:02:00,66.0,42.0,-100.00,NNE,19,2.0,5.0,42,0.00,,,0.00,97.000000,,2013-07-22 15:02:00,
2013-07-22 09:11:00,66.0,42.0,-100.00,NNE,19,2.0,5.0,42,0.00,,,0.00,97.000000,,2013-07-22 15:11:00,
2013-07-22 09:22:00,66.0,42.0,-100.00,NNE,19,2.0,5.0,42,0.00,,,0.00,97.000000,,2013-07-22 15:22:00,
2013-07-22 09:33:00,66.0,42.0,-100.00,NNE,19,2.0,5.0,42,0.00,,,0.00,97.000000,,2013-07-22 15:33:00,
2013-07-22 10:01:00,73.0,44.0,-100.00,West,262,3.0,6.0,36,0.00,,,0.00,611.000000,,2013-07-22 16:01:00,
2013-07-22 10:11:00,73.0,44.0,-100.00,West,262,3.0,6.0,36,0.00,,,0.00,611.000000,,2013-07-22 16:11:00,
2013-07-22 10:21:00,73.0,44.0,-100.00,West,262,3.0,6.0,36,0.00,,,0.00,611.000000,,2013-07-22 16:21:00,
2013-07-22 10:32:00,73.0,44.0,-100.00,West,262,3.0,6.0,36,0.00,,,0.00,611.000000,,2013-07-22 16:32:00,
2013-07-22 11:01:00,75.0,45.0,-100.00,NNW,327,3.0,5.0,35,0.00,,,-99.99,769.000000,,2013-07-22 17:01:00,
2013-07-22 11:11:00,75.0,45.0,-100.00,NNW,327,3.0,5.0,35,0.00,,,-99.99,769.000000,,2013-07-22 17:11:00,
2013-07-22 11:23:00,75.0,45.0,-100.00,NNW,327,3.0,5.0,35,0.00,,,-99.99,769.000000,,2013-07-22 17:23:00,
2013-07-22 11:32:00,75.0,45.0,-100.00,NNW,327,3.0,5.0,35,0.00,,,-99.99,769.000000,,2013-07-22 17:32:00,
2013-07-22 12:04:00,76.0,52.0,-100.00,South,182,4.0,11.0,43,0.00,,,0.00,887.000000,,2013-07-22 18:04:00,
2013-07-22 12:14:00,76.0,52.0,-100.00,South,182,4.0,11.0,43,0.00,,,0.00,887.000000,,2013-07-22 18:14:00,
2013-07-22 12:27:00,76.0,52.0,-100.00,South,182,4.0,11.0,43,0.00,,,0.00,887.000000,,2013-07-22 18:27:00,
2013-07-22 12:34:00,76.0,52.0,-100.00,South,182,4.0,11.0,43,0.00,,,0.00,887.000000,,2013-07-22 18:34:00,
2013-07-22 13:05:00,75.0,51.0,-100.00,South,172,5.0,11.0,43,0.00,,,0.00,904.000000,,2013-07-22 19:05:00,
2013-07-22 13:15:00,75.0,51.0,-100.00,South,172,5.0,11.0,43,0.00,,,0.00,904.000000,,2013-07-22 19:15:00,
2013-07-22 13:23:00,75.0,51.0,-100.00,South,172,5.0,11.0,43,0.00,,,0.00,904.000000,,2013-07-22 19:23:00,
2013-07-22 14:04:00,77.0,50.0,-100.00,SSW,200,4.0,13.0,39,0.00,,,0.00,968.000000,,2013-07-22 20:04:00,
2013-07-22 14:15:00,77.0,50.0,-100.00,SSW,200,4.0,13.0,39,0.00,,,0.00,968.000000,,2013-07-22 20:15:00,
2013-07-22 14:22:00,77.0,50.0,-100.00,SSW,200,4.0,13.0,39,0.00,,,0.00,968.000000,,2013-07-22 20:22:00,
2013-07-22 14:32:00,77.0,50.0,-100.00,SSW,200,4.0,13.0,39,0.00,,,0.00,968.000000,,2013-07-22 20:32:00,
2013-07-22 15:01:00,78.0,52.0,-100.00,SSW,209,5.0,12.0,40,0.00,,,0.00,961.000000,,2013-07-22 21:01:00,
2013-07-22 15:12:00,78.0,52.0,-100.00,SSW,209,5.0,12.0,40,0.00,,,0.00,961.000000,,2013-07-22 21:12:00,
2013-07-22 15:22:00,78.0,52.0,-100.00,SSW,209,5.0,12.0,40,0.00,,,0.00,961.000000,,2013-07-22 21:22:00,
2013-07-22 15:32:00,78.0,52.0,-100.00,SSW,209,5.0,12.0,40,0.00,,,0.00,961.000000,,2013-07-22 21:32:00,
2013-07-22 16:01:00,76.0,51.0,-100.00,SSE,167,6.0,15.0,41,0.00,,,0.00,848.000000,,2013-07-22 22:01:00,
2013-07-22 16:11:00,76.0,51.0,-100.00,SSE,167,6.0,15.0,41,0.00,,,0.00,848.000000,,2013-07-22 22:11:00,
2013-07-22 16:22:00,76.0,51.0,-100.00,SSE,167,6.0,15.0,41,0.00,,,0.00,848.000000,,2013-07-22 22:22:00,
2013-07-22 16:32:00,76.0,51.0,-100.00,SSE,167,6.0,15.0,41,0.00,,,0.00,848.000000,,2013-07-22 22:32:00,
2013-07-22 17:01:00,74.0,47.0,-100.00,SSE,157,7.0,14.0,38,0.00,,,0.00,141.000000,,2013-07-22 23:01:00,
2013-07-22 17:11:00,74.0,47.0,-100.00,SSE,157,7.0,14.0,38,0.00,,,0.00,141.000000,,2013-07-22 23:11:00,
2013-07-22 17:22:00,74.0,47.0,-100.00,SSE,157,7.0,14.0,38,0.00,,,0.00,141.000000,,2013-07-22 23:22:00,
2013-07-22 17:32:00,74.0,47.0,-100.00,SSE,157,7.0,14.0,38,0.00,,,0.00,141.000000,,2013-07-22 23:32:00,
2013-07-22 18:01:00,74.0,47.0,-100.00,SE,139,8.0,15.0,38,0.00,,,0.00,326.000000,,2013-07-23 00:01:00,
2013-07-22 18:12:00,74.0,47.0,-100.00,SE,139,8.0,15.0,38,0.00,,,0.00,326.000000,,2013-07-23 00:12:00,
2013-07-22 18:22:00,74.0,47.0,-100.00,SE,139,8.0,15.0,38,0.00,,,0.00,326.000000,,2013-07-23 00:22:00,
2013-07-22 18:32:00,74.0,47.0,-100.00,SE,139,8.0,15.0,38,0.00,,,0.00,326.000000,,2013-07-23 00:32:00,
2013-07-22 19:01:00,68.0,46.0,-100.00,ESE,113,7.0,16.0,45,0.00,,,0.00,108.000000,,2013-07-23 01:01:00,
2013-07-22 19:11:00,68.0,46.0,-100.00,ESE,113,7.0,16.0,45,0.00,,,0.00,108.000000,,2013-07-23 01:11:00,
2013-07-22 19:22:00,68.0,46.0,-100.00,ESE,113,7.0,16.0,45,0.00,,,0.00,108.000000,,2013-07-23 01:22:00,
2013-07-22 19:32:00,68.0,46.0,-100.00,ESE,113,7.0,16.0,45,0.00,,,0.00,108.000000,,2013-07-23 01:32:00,
2013-07-22 20:02:00,58.0,52.0,-100.00,ENE,67,4.0,19.0,79,0.06,,,0.06,73.000000,,2013-07-23 02:02:00,
2013-07-22 20:11:00,58.0,52.0,-100.00,ENE,67,4.0,19.0,79,0.06,,,0.06,73.000000,,2013-07-23 02:11:00,
2013-07-22 20:22:00,58.0,52.0,-100.00,ENE,67,4.0,19.0,79,0.06,,,0.06,73.000000,,2013-07-23 02:22:00,
2013-07-22 20:33:00,58.0,52.0,-100.00,ENE,67,4.0,19.0,79,0.06,,,0.06,73.000000,,2013-07-23 02:33:00,
2013-07-22 21:01:00,55.0,49.0,-100.00,East,92,6.0,31.0,80,0.21,,,0.27,41.000000,,2013-07-23 03:01:00,
2013-07-22 21:11:00,55.0,49.0,-100.00,East,92,6.0,31.0,80,0.21,,,0.27,41.000000,,2013-07-23 03:11:00,
2013-07-22 21:22:00,55.0,49.0,-100.00,East,92,6.0,31.0,80,0.21,,,0.27,41.000000,,2013-07-23 03:22:00,
2013-07-22 21:33:00,55.0,49.0,-100.00,East,92,6.0,31.0,80,0.21,,,0.27,41.000000,,2013-07-23 03:33:00,
2013-07-22 22:01:00,56.0,49.0,-100.00,East,90,5.0,19.0,77,0.00,,,0.27,1.000000,,2013-07-23 04:01:00,
2013-07-22 22:11:00,56.0,49.0,-100.00,East,90,5.0,19.0,77,0.00,,,0.27,1.000000,,2013-07-23 04:11:00,
2013-07-22 22:21:00,56.0,49.0,-100.00,East,90,5.0,19.0,77,0.00,,,0.27,1.000000,,2013-07-23 04:21:00,
2013-07-22 22:32:00,56.0,49.0,-100.00,East,90,5.0,19.0,77,0.00,,,0.27,1.000000,,2013-07-23 04:32:00,
2013-07-22 23:02:00,57.0,47.0,-100.00,ESE,110,6.0,18.0,70,0.00,,,0.27,0.000000,,2013-07-23 05:02:00,
2013-07-22 23:11:00,57.0,47.0,-100.00,ESE,110,6.0,18.0,70,0.00,,,0.27,0.000000,,2013-07-23 05:11:00,
2013-07-22 23:22:00,57.0,47.0,-100.00,ESE,110,6.0,18.0,70,0.00,,,0.27,0.000000,,2013-07-23 05:22:00,
2013-07-22 23:33:00,57.0,47.0,-100.00,ESE,110,6.0,18.0,70,0.00,,,0.27,0.000000,,2013-07-23 05:33:00,